createdAt,value
2018-07-07T00:00:50.247Z,2.30
2018-07-07T00:01:50.259Z,2.20
2018-07-07T00:02:50.287Z,1.70
2018-07-07T00:03:50.299Z,2.00
2018-07-07T00:04:50.322Z,2.00
2018-07-07T00:05:50.346Z,1.70
2018-07-07T00:06:50.357Z,1.90
2018-07-07T00:07:50.391Z,1.90
2018-07-07T00:08:50.404Z,2.00
2018-07-07T00:09:50.427Z,1.90
2018-07-07T00:10:50.439Z,2.50
2018-07-07T00:11:50.462Z,2.30
2018-07-07T00:12:50.489Z,2.90
2018-07-07T00:13:50.506Z,2.00
2018-07-07T00:14:50.533Z,2.40
2018-07-07T00:15:50.543Z,2.30
2018-07-07T00:16:50.569Z,2.30
2018-07-07T00:17:50.600Z,1.90
2018-07-07T00:18:50.613Z,2.10
2018-07-07T00:19:50.640Z,2.10
2018-07-07T00:20:50.650Z,2.00
2018-07-07T00:21:50.672Z,1.80
2018-07-07T00:22:50.697Z,2.00
2018-07-07T00:23:50.718Z,2.20
2018-07-07T00:24:50.743Z,2.10
2018-07-07T00:25:50.753Z,2.10
2018-07-07T00:26:50.778Z,2.00
2018-07-07T00:27:50.792Z,2.00
2018-07-07T00:28:50.819Z,2.10
2018-07-07T00:29:50.851Z,2.20
2018-07-07T00:30:50.862Z,2.20
2018-07-07T00:31:50.883Z,2.30
2018-07-07T00:32:50.895Z,1.90
2018-07-07T00:33:50.925Z,2.10
2018-07-07T00:34:50.939Z,2.30
2018-07-07T00:35:50.967Z,2.40
2018-07-07T00:36:50.993Z,2.10
2018-07-07T00:37:51.003Z,2.00
2018-07-07T00:38:51.029Z,2.40
2018-07-07T00:39:51.045Z,1.70
2018-07-07T00:40:51.071Z,1.80
2018-07-07T00:41:51.082Z,2.20
2018-07-07T00:42:51.107Z,2.10
2018-07-07T00:43:51.131Z,2.10
2018-07-07T00:44:51.143Z,2.00
2018-07-07T00:45:51.174Z,2.00
2018-07-07T00:46:51.188Z,1.80
2018-07-07T00:47:51.213Z,2.20
2018-07-07T00:48:51.238Z,2.30
2018-07-07T00:49:51.256Z,2.20
2018-07-07T00:50:51.281Z,2.20
2018-07-07T00:51:51.293Z,1.90
2018-07-07T00:52:51.319Z,2.10
2018-07-07T00:53:51.328Z,2.50
2018-07-07T00:54:51.353Z,2.30
2018-07-07T00:55:51.373Z,2.40
2018-07-07T00:56:51.397Z,2.50
2018-07-07T00:57:51.407Z,2.00
2018-07-07T00:58:51.432Z,2.10
2018-07-07T00:59:51.464Z,2.30
2018-07-07T01:00:51.475Z,2.30
2018-07-07T01:01:51.504Z,2.60
2018-07-07T01:02:51.518Z,2.60
2018-07-07T01:03:51.538Z,1.90
2018-07-07T01:04:51.552Z,2.40
2018-07-07T01:05:51.582Z,2.40
2018-07-07T01:06:51.594Z,2.10
2018-07-07T01:07:51.626Z,2.20
2018-07-07T01:08:51.648Z,2.40
2018-07-07T01:09:51.663Z,3.00
2018-07-07T01:10:51.684Z,2.40
2018-07-07T01:11:51.697Z,2.40
2018-07-07T01:12:51.725Z,2.50
2018-07-07T01:13:51.742Z,2.10
2018-07-07T01:14:51.768Z,2.50
2018-07-07T01:15:51.781Z,1.90
2018-07-07T01:16:51.804Z,2.30
2018-07-07T01:17:51.819Z,2.30
2018-07-07T01:18:51.840Z,2.60
2018-07-07T01:19:51.871Z,2.40
2018-07-07T01:20:51.888Z,2.20
2018-07-07T01:21:51.895Z,2.60
2018-07-07T01:22:51.921Z,2.40
2018-07-07T01:23:51.934Z,2.40
2018-07-07T01:24:51.957Z,2.40
2018-07-07T01:25:51.987Z,2.50
2018-07-07T01:26:52.001Z,2.60
2018-07-07T01:27:52.024Z,2.50
2018-07-07T01:28:52.037Z,2.90
2018-07-07T01:29:52.066Z,2.70
2018-07-07T01:30:52.080Z,2.40
2018-07-07T01:31:52.112Z,2.30
2018-07-07T01:32:52.121Z,2.90
2018-07-07T01:33:52.143Z,2.80
2018-07-07T01:34:52.158Z,3.00
2018-07-07T01:35:52.186Z,3.00
2018-07-07T01:36:52.198Z,2.60
2018-07-07T01:37:52.258Z,2.80
2018-07-07T01:38:52.234Z,2.80
2018-07-07T01:39:52.262Z,2.90
2018-07-07T01:40:52.275Z,2.60
2018-07-07T01:41:52.305Z,2.50
2018-07-07T01:42:52.320Z,3.10
2018-07-07T01:43:52.340Z,2.40
2018-07-07T01:44:52.369Z,2.70
2018-07-07T01:45:52.388Z,2.80
2018-07-07T01:46:52.399Z,2.50
2018-07-07T01:47:52.425Z,3.10
2018-07-07T01:48:52.437Z,2.60
2018-07-07T01:49:52.457Z,2.80
2018-07-07T01:50:52.483Z,3.10
2018-07-07T01:51:52.504Z,2.70
2018-07-07T01:52:52.530Z,2.80
2018-07-07T01:53:52.537Z,2.50
2018-07-07T01:54:52.564Z,2.80
2018-07-07T01:55:52.575Z,2.60
2018-07-07T01:56:52.602Z,2.70
2018-07-07T01:57:52.618Z,3.00
2018-07-07T01:58:52.645Z,3.00
2018-07-07T01:59:52.655Z,2.60
2018-07-07T02:00:52.683Z,3.00
2018-07-07T02:01:52.698Z,2.90
2018-07-07T02:02:52.723Z,3.00
2018-07-07T02:03:52.740Z,3.20
2018-07-07T02:04:52.765Z,2.50
2018-07-07T02:05:52.774Z,3.40
2018-07-07T02:06:52.800Z,3.10
2018-07-07T02:07:52.816Z,3.10
2018-07-07T02:08:52.846Z,2.80
2018-07-07T02:09:52.851Z,2.60
2018-07-07T02:10:52.877Z,2.90
2018-07-07T02:11:52.894Z,2.80
2018-07-07T02:12:52.920Z,3.00
2018-07-07T02:13:52.950Z,2.90
2018-07-07T02:14:52.951Z,3.10
2018-07-07T02:15:52.971Z,2.70
2018-07-07T02:16:52.987Z,2.60
2018-07-07T02:17:53.014Z,3.30
2018-07-07T02:18:53.106Z,2.90
2018-07-07T02:19:53.059Z,2.80
2018-07-07T02:20:53.085Z,2.80
2018-07-07T02:21:53.090Z,3.10
2018-07-07T02:22:53.104Z,3.10
2018-07-07T02:23:53.132Z,3.10
2018-07-07T02:24:53.149Z,3.00
2018-07-07T02:25:53.166Z,2.80
2018-07-07T02:26:53.181Z,2.90
2018-07-07T02:27:53.209Z,2.90
2018-07-07T02:28:53.223Z,3.00
2018-07-07T02:29:53.252Z,3.40
2018-07-07T02:30:53.266Z,2.90
2018-07-07T02:31:53.288Z,3.20
2018-07-07T02:32:53.301Z,2.70
2018-07-07T02:33:53.331Z,3.30
2018-07-07T02:34:53.345Z,3.50
2018-07-07T02:35:53.369Z,3.30
2018-07-07T02:36:53.382Z,4.20
2018-07-07T02:37:53.404Z,3.30
2018-07-07T02:38:53.418Z,3.20
2018-07-07T02:39:53.438Z,3.40
2018-07-07T02:40:53.463Z,2.80
2018-07-07T02:41:53.473Z,3.10
2018-07-07T02:42:53.500Z,3.40
2018-07-07T02:43:53.510Z,3.10
2018-07-07T02:44:53.537Z,3.70
2018-07-07T02:45:53.553Z,3.10
2018-07-07T02:46:53.581Z,3.30
2018-07-07T02:47:53.590Z,3.40
2018-07-07T02:48:53.617Z,3.30
2018-07-07T02:49:53.635Z,3.70
2018-07-07T02:50:53.659Z,3.10
2018-07-07T02:51:53.674Z,3.80
2018-07-07T02:52:53.702Z,3.70
2018-07-07T02:53:53.713Z,3.70
2018-07-07T02:54:53.723Z,3.10
2018-07-07T02:55:53.751Z,3.90
2018-07-07T02:56:53.764Z,3.10
2018-07-07T02:57:53.786Z,4.10
2018-07-07T02:58:53.799Z,3.40
2018-07-07T02:59:53.826Z,3.50
2018-07-07T03:00:53.846Z,3.30
2018-07-07T03:01:53.874Z,3.40
2018-07-07T03:02:53.885Z,3.70
2018-07-07T03:03:53.907Z,3.20
2018-07-07T03:04:53.921Z,3.10
2018-07-07T03:05:53.950Z,3.50
2018-07-07T03:06:53.963Z,3.40
2018-07-07T03:07:53.975Z,3.00
2018-07-07T03:08:54.001Z,3.40
2018-07-07T03:09:54.010Z,3.80
2018-07-07T03:10:54.035Z,3.80
2018-07-07T03:11:54.056Z,3.50
2018-07-07T03:12:54.082Z,3.60
2018-07-07T03:13:54.090Z,3.10
2018-07-07T03:14:54.117Z,3.50
2018-07-07T03:15:54.128Z,3.00
2018-07-07T03:16:54.155Z,3.60
2018-07-07T03:17:54.173Z,3.20
2018-07-07T03:18:54.187Z,3.50
2018-07-07T03:19:54.212Z,3.80
2018-07-07T03:20:54.225Z,3.20
2018-07-07T03:21:54.247Z,3.50
2018-07-07T03:22:54.261Z,3.50
2018-07-07T03:23:54.289Z,3.40
2018-07-07T03:24:54.304Z,3.40
2018-07-07T03:25:54.332Z,3.50
2018-07-07T03:26:54.345Z,3.50
2018-07-07T03:27:54.355Z,3.30
2018-07-07T03:28:54.378Z,3.50
2018-07-07T03:29:54.396Z,4.00
2018-07-07T03:30:54.427Z,3.40
2018-07-07T03:31:54.437Z,3.60
2018-07-07T03:32:54.464Z,3.30
2018-07-07T03:33:54.474Z,3.70
2018-07-07T03:34:54.502Z,4.10
2018-07-07T03:35:54.516Z,3.80
2018-07-07T03:36:54.546Z,4.50
2018-07-07T03:37:54.553Z,3.50
2018-07-07T03:38:54.578Z,3.60
2018-07-07T03:39:54.589Z,3.00
2018-07-07T03:40:54.604Z,3.40
2018-07-07T03:41:54.633Z,3.50
2018-07-07T03:42:54.646Z,3.40
2018-07-07T03:43:54.670Z,4.20
2018-07-07T03:44:54.685Z,3.50
2018-07-07T03:45:54.713Z,3.30
2018-07-07T03:46:54.727Z,3.70
2018-07-07T03:47:54.751Z,3.40
2018-07-07T03:48:54.765Z,3.20
2018-07-07T03:49:54.786Z,3.40
2018-07-07T03:50:54.800Z,3.70
2018-07-07T03:51:54.829Z,3.40
2018-07-07T03:52:54.844Z,3.40
2018-07-07T03:53:54.853Z,3.40
2018-07-07T03:54:54.883Z,3.30
2018-07-07T03:55:54.895Z,4.00
2018-07-07T03:56:54.921Z,3.30
2018-07-07T03:57:54.937Z,3.70
2018-07-07T03:58:55.020Z,3.60
2018-07-07T03:59:54.972Z,3.30
2018-07-07T04:00:54.998Z,3.20
2018-07-07T04:01:55.015Z,3.10
2018-07-07T04:02:55.041Z,3.60
2018-07-07T04:03:55.058Z,3.50
2018-07-07T04:04:55.083Z,3.50
2018-07-07T04:05:55.092Z,3.20
2018-07-07T04:06:55.119Z,3.30
2018-07-07T04:07:55.135Z,3.90
2018-07-07T04:08:55.151Z,4.20
2018-07-07T04:09:55.170Z,3.90
2018-07-07T04:10:55.184Z,4.10
2018-07-07T04:11:55.208Z,3.10
2018-07-07T04:12:55.221Z,3.40
2018-07-07T04:13:55.251Z,3.40
2018-07-07T04:14:55.265Z,3.30
2018-07-07T04:15:55.288Z,3.50
2018-07-07T04:16:55.335Z,3.60
2018-07-07T04:17:55.335Z,3.60
2018-07-07T04:18:55.349Z,4.00
2018-07-07T04:19:55.374Z,3.70
2018-07-07T04:20:55.384Z,3.50
2018-07-07T04:21:55.404Z,3.30
2018-07-07T04:22:55.426Z,3.30
2018-07-07T04:23:55.451Z,3.70
2018-07-07T04:24:55.463Z,3.50
2018-07-07T04:25:55.485Z,3.60
2018-07-07T04:26:55.499Z,3.60
2018-07-07T04:27:55.523Z,4.00
2018-07-07T04:28:55.536Z,3.70
2018-07-07T04:29:55.579Z,3.60
2018-07-07T04:30:55.581Z,3.50
2018-07-07T04:31:55.605Z,3.40
2018-07-07T04:32:55.617Z,3.90
2018-07-07T04:33:55.650Z,3.30
2018-07-07T04:34:55.667Z,3.20
2018-07-07T04:35:55.686Z,3.40
2018-07-07T04:36:55.698Z,3.90
2018-07-07T04:37:55.720Z,4.00
2018-07-07T04:38:55.734Z,3.00
2018-07-07T04:39:55.764Z,3.90
2018-07-07T04:40:55.777Z,3.30
2018-07-07T04:41:55.799Z,3.20
2018-07-07T04:42:55.813Z,3.20
2018-07-07T04:43:55.841Z,3.20
2018-07-07T04:44:55.853Z,3.40
2018-07-07T04:45:55.892Z,3.80
2018-07-07T04:46:55.899Z,4.10
2018-07-07T04:47:55.918Z,3.10
2018-07-07T04:48:55.934Z,3.50
2018-07-07T04:49:55.961Z,3.70
2018-07-07T04:50:55.975Z,3.50
2018-07-07T04:51:56.004Z,3.10
2018-07-07T04:52:56.030Z,3.10
2018-07-07T04:53:56.038Z,3.50
2018-07-07T04:54:56.063Z,3.40
2018-07-07T04:55:56.082Z,4.10
2018-07-07T04:56:56.108Z,3.20
2018-07-07T04:57:56.116Z,3.70
2018-07-07T04:58:56.156Z,3.70
2018-07-07T04:59:56.155Z,3.00
2018-07-07T05:00:56.180Z,3.10
2018-07-07T05:01:56.197Z,3.20
2018-07-07T05:02:56.224Z,3.20
2018-07-07T05:03:56.240Z,3.20
2018-07-07T05:04:56.261Z,3.20
2018-07-07T05:05:56.291Z,3.60
2018-07-07T05:06:56.304Z,3.10
2018-07-07T05:07:56.328Z,3.10
2018-07-07T05:08:56.343Z,3.30
2018-07-07T05:09:56.364Z,3.30
2018-07-07T05:10:56.378Z,3.00
2018-07-07T05:11:56.408Z,3.90
2018-07-07T05:12:56.435Z,3.30
2018-07-07T05:13:56.442Z,3.50
2018-07-07T05:14:56.468Z,3.40
2018-07-07T05:15:56.484Z,3.10
2018-07-07T05:16:56.513Z,3.00
2018-07-07T05:17:56.535Z,3.30
2018-07-07T05:18:56.553Z,2.90
2018-07-07T05:19:56.574Z,3.10
2018-07-07T05:20:56.589Z,3.80
2018-07-07T05:21:56.617Z,3.80
2018-07-07T05:22:56.631Z,3.60
2018-07-07T05:23:56.664Z,3.50
2018-07-07T05:24:56.685Z,3.60
2018-07-07T05:25:56.693Z,3.90
2018-07-07T05:26:56.732Z,3.30
2018-07-07T05:27:56.734Z,3.00
2018-07-07T05:28:56.760Z,3.20
2018-07-07T05:29:56.777Z,3.10
2018-07-07T05:30:56.802Z,3.20
2018-07-07T05:31:56.850Z,3.10
2018-07-07T05:32:56.841Z,4.10
2018-07-07T05:33:56.862Z,3.00
2018-07-07T05:34:56.889Z,3.80
2018-07-07T05:35:56.942Z,3.10
2018-07-07T05:36:56.934Z,3.30
2018-07-07T05:37:56.955Z,3.60
2018-07-07T05:38:56.969Z,3.10
2018-07-07T05:39:56.993Z,3.30
2018-07-07T05:40:57.018Z,3.00
2018-07-07T05:41:57.036Z,3.00
2018-07-07T05:42:57.062Z,3.60
2018-07-07T05:43:57.084Z,3.20
2018-07-07T05:44:57.099Z,3.10
2018-07-07T05:45:57.128Z,3.20
2018-07-07T05:46:57.155Z,3.30
2018-07-07T05:47:57.174Z,3.00
2018-07-07T05:48:57.195Z,3.30
2018-07-07T05:49:57.237Z,3.70
2018-07-07T05:50:57.232Z,3.40
2018-07-07T05:51:57.264Z,3.20
2018-07-07T05:52:57.284Z,3.40
2018-07-07T05:53:57.306Z,3.60
2018-07-07T05:54:57.319Z,3.00
2018-07-07T05:55:57.336Z,3.10
2018-07-07T05:56:57.361Z,3.40
2018-07-07T05:57:57.392Z,3.20
2018-07-07T05:58:57.404Z,3.30
2018-07-07T05:59:57.426Z,3.60
2018-07-07T06:00:57.465Z,3.10
2018-07-07T06:01:57.470Z,2.90
2018-07-07T06:02:57.497Z,3.20
2018-07-07T06:03:57.521Z,3.50
2018-07-07T06:04:57.533Z,3.30
2018-07-07T06:05:57.555Z,3.10
2018-07-07T06:06:57.572Z,3.20
2018-07-07T06:07:57.601Z,3.30
2018-07-07T06:08:57.628Z,3.10
2018-07-07T06:09:57.638Z,3.30
2018-07-07T06:10:57.663Z,3.20
2018-07-07T06:11:57.686Z,3.10
2018-07-07T06:12:57.700Z,3.70
2018-07-07T06:13:57.730Z,3.30
2018-07-07T06:14:57.756Z,3.00
2018-07-07T06:15:57.765Z,3.20
2018-07-07T06:16:57.791Z,2.90
2018-07-07T06:17:57.810Z,2.70
2018-07-07T06:18:58.088Z,3.10
2018-07-07T06:19:57.863Z,2.80
2018-07-07T06:20:57.876Z,2.60
2018-07-07T06:21:57.898Z,3.00
2018-07-07T06:22:57.924Z,2.90
2018-07-07T06:23:57.941Z,3.00
2018-07-07T06:24:57.967Z,3.70
2018-07-07T06:25:57.988Z,3.20
2018-07-07T06:26:58.002Z,2.70
2018-07-07T06:27:58.046Z,2.90
2018-07-07T06:28:58.055Z,2.80
2018-07-07T06:29:58.085Z,3.00
2018-07-07T06:30:58.103Z,3.10
2018-07-07T06:31:58.120Z,2.70
2018-07-07T06:32:58.146Z,2.80
2018-07-07T06:33:58.175Z,2.20
2018-07-07T06:34:58.201Z,2.50
2018-07-07T06:35:58.230Z,2.50
2018-07-07T06:36:58.243Z,2.00
2018-07-07T06:37:58.265Z,2.40
2018-07-07T06:38:58.290Z,2.60
2018-07-07T06:39:58.317Z,2.90
2018-07-07T06:40:58.343Z,2.90
2018-07-07T06:41:58.365Z,2.40
2018-07-07T06:42:58.391Z,2.50
2018-07-07T06:43:58.433Z,2.70
2018-07-07T06:44:58.445Z,2.40
2018-07-07T06:45:58.476Z,2.50
2018-07-07T06:46:58.501Z,2.60
2018-07-07T06:47:58.524Z,2.70
2018-07-07T06:48:58.550Z,3.20
2018-07-07T06:49:58.598Z,2.90
2018-07-07T06:50:58.606Z,2.80
2018-07-07T06:51:58.630Z,2.30
2018-07-07T06:52:58.656Z,2.60
2018-07-07T06:53:58.813Z,2.90
2018-07-07T06:54:58.704Z,2.70
2018-07-07T06:55:58.736Z,2.30
2018-07-07T06:56:58.762Z,2.40
2018-07-07T06:57:58.784Z,2.50
2018-07-07T06:58:58.822Z,2.50
2018-07-07T06:59:58.884Z,2.00
2018-07-07T07:00:58.872Z,2.10
2018-07-07T07:01:58.903Z,2.20
2018-07-07T07:02:58.928Z,2.50
2018-07-07T07:03:58.962Z,2.50
2018-07-07T07:04:58.989Z,2.80
2018-07-07T07:05:59.018Z,2.50
2018-07-07T07:06:59.048Z,2.50
2018-07-07T07:07:59.073Z,2.10
2018-07-07T07:08:59.111Z,2.80
2018-07-07T07:09:59.134Z,2.50
2018-07-07T07:10:59.159Z,2.30
2018-07-07T07:11:59.283Z,2.30
2018-07-07T07:12:59.224Z,2.40
2018-07-07T07:13:59.247Z,2.30
2018-07-07T07:14:59.273Z,2.30
2018-07-07T07:15:59.313Z,2.40
2018-07-07T07:16:59.340Z,2.30
2018-07-07T07:17:59.370Z,2.30
2018-07-07T07:18:59.408Z,2.30
2018-07-07T07:19:59.498Z,2.20
2018-07-07T07:20:59.455Z,2.00
2018-07-07T07:21:59.498Z,2.50
2018-07-07T07:22:59.524Z,2.40
2018-07-07T07:23:59.549Z,2.30
2018-07-07T07:24:59.602Z,2.60
2018-07-07T07:25:59.676Z,2.40
2018-07-07T07:26:59.635Z,2.60
2018-07-07T07:27:59.680Z,2.30
2018-07-07T07:28:59.706Z,2.20
2018-07-07T07:29:59.739Z,2.40
2018-07-07T07:30:59.765Z,2.50
2018-07-07T07:31:59.812Z,2.20
2018-07-07T07:32:59.832Z,2.40
2018-07-07T07:33:59.862Z,2.70
2018-07-07T07:34:59.886Z,2.40
2018-07-07T07:35:59.924Z,2.20
2018-07-07T07:36:59.953Z,2.00
2018-07-07T07:37:59.985Z,2.40
2018-07-07T07:39:00.030Z,2.30
2018-07-07T07:40:00.037Z,2.50
2018-07-07T07:41:00.073Z,2.10
2018-07-07T07:42:00.103Z,2.80
2018-07-07T07:43:00.142Z,2.40
2018-07-07T07:44:00.166Z,2.40
2018-07-07T07:45:00.203Z,1.90
2018-07-07T07:46:00.237Z,2.30
2018-07-07T07:47:00.259Z,2.50
2018-07-07T07:48:00.296Z,2.50
2018-07-07T07:49:00.323Z,2.30
2018-07-07T07:50:00.356Z,2.40
2018-07-07T07:51:00.383Z,2.50
2018-07-07T07:52:00.426Z,2.40
2018-07-07T07:53:00.451Z,2.70
2018-07-07T07:54:00.485Z,2.30
2018-07-07T07:55:00.512Z,2.70
2018-07-07T07:56:00.552Z,2.50
2018-07-07T07:57:00.578Z,2.10
2018-07-07T07:58:00.609Z,2.20
2018-07-07T07:59:00.652Z,2.50
2018-07-07T08:00:00.667Z,2.40
2018-07-07T08:01:00.709Z,2.60
2018-07-07T08:02:00.735Z,2.10
2018-07-07T08:03:00.773Z,2.20
2018-07-07T08:04:00.801Z,2.40
2018-07-07T08:05:00.840Z,2.60
2018-07-07T08:06:00.865Z,2.30
2018-07-07T08:07:00.902Z,1.70
2018-07-07T08:08:00.943Z,2.70
2018-07-07T08:09:00.970Z,2.00
2018-07-07T08:10:01.003Z,2.10
2018-07-07T08:11:01.028Z,2.00
2018-07-07T08:12:01.073Z,2.10
2018-07-07T08:13:01.104Z,2.00
2018-07-07T08:14:01.195Z,2.00
2018-07-07T08:15:01.172Z,2.40
2018-07-07T08:16:01.208Z,2.10
2018-07-07T08:17:01.234Z,2.20
2018-07-07T08:18:01.277Z,2.10
2018-07-07T08:19:01.315Z,1.90
2018-07-07T08:20:01.341Z,2.10
2018-07-07T08:21:01.382Z,1.90
2018-07-07T08:22:01.412Z,2.30
2018-07-07T08:23:01.491Z,2.20
2018-07-07T08:24:01.497Z,2.00
2018-07-07T08:25:01.533Z,2.00
2018-07-07T08:26:01.556Z,2.50
2018-07-07T08:27:01.596Z,2.10
2018-07-07T08:28:01.633Z,2.20
2018-07-07T08:29:01.674Z,1.90
2018-07-07T08:30:01.715Z,2.30
2018-07-07T08:31:01.740Z,2.10
2018-07-07T08:32:01.773Z,3.00
2018-07-07T08:33:01.811Z,2.10
2018-07-07T08:34:01.856Z,1.90
2018-07-07T08:35:01.887Z,2.40
2018-07-07T08:36:01.922Z,1.80
2018-07-07T08:37:01.958Z,2.10
2018-07-07T08:38:01.980Z,2.20
2018-07-07T08:39:02.023Z,2.10
2018-07-07T08:40:02.063Z,2.30
2018-07-07T08:41:02.089Z,2.20
2018-07-07T08:42:02.131Z,2.20
2018-07-07T08:43:02.146Z,2.30
2018-07-07T08:44:02.186Z,2.10
2018-07-07T08:45:02.225Z,2.30
2018-07-07T08:46:02.255Z,2.50
2018-07-07T08:47:02.293Z,2.60
2018-07-07T08:48:02.326Z,2.60
2018-07-07T08:49:02.355Z,2.40
2018-07-07T08:50:02.383Z,2.00
2018-07-07T08:51:02.420Z,2.20
2018-07-07T08:52:02.448Z,2.30
2018-07-07T08:53:02.487Z,2.40
2018-07-07T08:54:02.509Z,2.20
2018-07-07T08:55:02.547Z,2.30
2018-07-07T08:56:02.590Z,2.20
2018-07-07T08:57:02.616Z,2.40
2018-07-07T08:58:02.649Z,2.20
2018-07-07T08:59:02.675Z,2.40
2018-07-07T09:00:02.712Z,2.20
2018-07-07T09:01:02.740Z,2.50
2018-07-07T09:02:02.780Z,2.40
2018-07-07T09:03:02.820Z,2.50
2018-07-07T09:04:02.844Z,2.80
2018-07-07T09:05:02.881Z,2.00
2018-07-07T09:06:02.914Z,2.10
2018-07-07T09:07:02.950Z,2.40
2018-07-07T09:08:02.976Z,2.10
2018-07-07T09:09:03.012Z,1.90
2018-07-07T09:10:03.047Z,2.10
2018-07-07T09:11:03.074Z,2.50
2018-07-07T09:12:03.115Z,2.40
2018-07-07T09:13:03.154Z,2.40
2018-07-07T09:14:03.176Z,2.40
2018-07-07T09:15:03.217Z,3.10
2018-07-07T09:16:03.254Z,2.00
2018-07-07T09:17:03.340Z,2.50
2018-07-07T09:18:03.323Z,2.50
2018-07-07T09:19:03.362Z,2.40
2018-07-07T09:20:03.393Z,2.20
2018-07-07T09:21:03.420Z,2.20
2018-07-07T09:22:03.463Z,2.50
2018-07-07T09:23:03.500Z,2.90
2018-07-07T09:24:03.541Z,2.50
2018-07-07T09:25:03.568Z,2.40
2018-07-07T09:26:03.612Z,2.40
2018-07-07T09:27:03.627Z,2.30
2018-07-07T09:28:03.657Z,2.50
2018-07-07T09:29:03.696Z,2.20
2018-07-07T09:30:03.722Z,2.10
2018-07-07T09:31:03.756Z,2.10
2018-07-07T09:32:03.781Z,2.40
2018-07-07T09:33:03.819Z,2.20
2018-07-07T09:34:03.850Z,3.10
2018-07-07T09:35:03.887Z,1.90
2018-07-07T09:36:03.910Z,1.90
2018-07-07T09:37:03.950Z,2.20
2018-07-07T09:38:03.991Z,2.40
2018-07-07T09:39:04.020Z,2.00
2018-07-07T09:40:04.043Z,2.40
2018-07-07T09:41:04.081Z,1.90
2018-07-07T09:42:04.103Z,1.90
2018-07-07T09:43:04.147Z,1.60
2018-07-07T09:44:04.222Z,1.90
2018-07-07T09:45:04.209Z,2.00
2018-07-07T09:46:04.239Z,1.80
2018-07-07T09:47:04.277Z,2.20
2018-07-07T09:48:04.302Z,2.10
2018-07-07T09:49:04.342Z,1.60
2018-07-07T09:50:04.363Z,1.70
2018-07-07T09:51:04.417Z,1.90
2018-07-07T09:52:04.429Z,2.00
2018-07-07T09:53:04.469Z,2.00
2018-07-07T09:54:04.503Z,2.00
2018-07-07T09:55:04.527Z,1.90
2018-07-07T09:56:04.568Z,2.00
2018-07-07T09:57:04.595Z,1.90
2018-07-07T09:58:04.636Z,2.20
2018-07-07T09:59:04.675Z,2.20
2018-07-07T10:00:04.697Z,1.90
2018-07-07T10:01:04.735Z,1.70
2018-07-07T10:02:04.769Z,1.80
2018-07-07T10:03:04.805Z,1.90
2018-07-07T10:04:04.843Z,1.70
2018-07-07T10:05:04.881Z,1.80
2018-07-07T10:06:04.901Z,1.80
2018-07-07T10:07:04.939Z,1.90
2018-07-07T10:08:04.984Z,1.90
2018-07-07T10:09:05.010Z,1.70
2018-07-07T10:10:05.044Z,1.90
2018-07-07T10:11:05.082Z,1.80
2018-07-07T10:12:05.118Z,1.90
2018-07-07T10:13:05.158Z,1.90
2018-07-07T10:14:05.191Z,1.80
2018-07-07T10:15:05.225Z,1.60
2018-07-07T10:16:05.260Z,1.60
2018-07-07T10:17:05.286Z,1.80
2018-07-07T10:18:05.329Z,1.60
2018-07-07T10:19:05.367Z,1.30
2018-07-07T10:20:05.407Z,1.70
2018-07-07T10:21:05.447Z,1.60
2018-07-07T10:22:05.483Z,1.90
2018-07-07T10:23:05.520Z,1.40
2018-07-07T10:24:05.558Z,1.50
2018-07-07T10:25:05.598Z,1.60
2018-07-07T10:26:05.632Z,1.60
2018-07-07T10:27:05.674Z,1.50
2018-07-07T10:28:05.710Z,1.50
2018-07-07T10:29:05.798Z,1.50
2018-07-07T10:30:05.792Z,1.30
2018-07-07T10:31:05.832Z,1.70
2018-07-07T10:32:05.864Z,1.30
2018-07-07T10:33:05.903Z,1.40
2018-07-07T10:34:05.946Z,1.40
2018-07-07T10:35:05.985Z,1.70
2018-07-07T10:36:06.033Z,1.40
2018-07-07T10:37:06.072Z,1.40
2018-07-07T10:38:06.147Z,1.20
2018-07-07T10:39:06.144Z,1.20
2018-07-07T10:40:06.190Z,1.60
2018-07-07T10:41:06.243Z,1.50
2018-07-07T10:42:06.266Z,1.10
2018-07-07T10:43:06.314Z,1.50
2018-07-07T10:44:06.349Z,1.40
2018-07-07T10:45:06.390Z,1.50
2018-07-07T10:46:06.516Z,1.50
2018-07-07T10:47:06.470Z,1.30
2018-07-07T10:48:06.507Z,1.30
2018-07-07T10:49:06.559Z,1.30
2018-07-07T10:50:06.600Z,1.60
2018-07-07T10:51:06.638Z,1.20
2018-07-07T10:52:06.675Z,1.30
2018-07-07T10:53:06.749Z,1.50
2018-07-07T10:54:06.761Z,1.60
2018-07-07T10:55:06.802Z,1.40
2018-07-07T10:56:06.848Z,1.30
2018-07-07T10:57:06.882Z,1.40
2018-07-07T10:58:06.928Z,1.20
2018-07-07T10:59:06.966Z,1.40
2018-07-07T11:00:07.005Z,1.60
2018-07-07T11:01:07.043Z,1.20
2018-07-07T11:02:07.097Z,1.40
2018-07-07T11:03:07.138Z,1.40
2018-07-07T11:04:07.170Z,1.30
2018-07-07T11:05:07.208Z,1.20
2018-07-07T11:06:07.252Z,1.30
2018-07-07T11:07:07.301Z,1.50
2018-07-07T11:08:07.348Z,1.40
2018-07-07T11:09:07.380Z,1.30
2018-07-07T11:10:07.427Z,1.40
2018-07-07T11:11:07.465Z,1.40
2018-07-07T11:12:07.570Z,1.10
2018-07-07T11:13:07.545Z,1.20
2018-07-07T11:14:07.592Z,1.40
2018-07-07T11:15:07.643Z,1.30
2018-07-07T11:16:07.671Z,1.30
2018-07-07T11:17:07.711Z,1.20
2018-07-07T11:18:07.764Z,1.20
2018-07-07T11:19:07.804Z,1.30
2018-07-07T11:20:07.886Z,1.40
2018-07-07T11:21:07.888Z,1.30
2018-07-07T11:22:07.934Z,1.70
2018-07-07T11:23:07.970Z,1.10
2018-07-07T11:24:08.018Z,1.30
2018-07-07T11:25:08.058Z,1.50
2018-07-07T11:26:08.093Z,1.30
2018-07-07T11:27:08.130Z,1.20
2018-07-07T11:28:08.188Z,1.10
2018-07-07T11:29:08.239Z,1.40
2018-07-07T11:30:08.264Z,1.10
2018-07-07T11:31:08.299Z,1.20
2018-07-07T11:32:08.347Z,1.30
2018-07-07T11:33:08.387Z,1.10
2018-07-07T11:34:08.428Z,1.30
2018-07-07T11:35:08.468Z,1.30
2018-07-07T11:36:08.518Z,1.20
2018-07-07T11:37:08.552Z,1.40
2018-07-07T11:38:08.596Z,1.20
2018-07-07T11:39:08.636Z,1.20
2018-07-07T11:40:09.040Z,1.40
2018-07-07T11:41:08.725Z,1.30
2018-07-07T11:42:08.762Z,1.40
2018-07-07T11:43:08.797Z,1.20
2018-07-07T11:44:08.852Z,1.40
2018-07-07T11:45:08.888Z,1.50
2018-07-07T11:46:09.124Z,1.20
2018-07-07T11:47:08.962Z,1.20
2018-07-07T11:48:09.015Z,1.40
2018-07-07T11:49:09.053Z,1.20
2018-07-07T11:50:09.117Z,1.00
2018-07-07T11:51:09.134Z,1.30
2018-07-07T11:52:09.186Z,1.20
2018-07-07T11:53:09.223Z,1.00
2018-07-07T11:54:09.259Z,1.20
2018-07-07T11:55:09.296Z,1.40
2018-07-07T11:56:09.345Z,1.50
2018-07-07T11:57:09.386Z,1.10
2018-07-07T11:58:09.428Z,1.20
2018-07-07T11:59:09.465Z,1.30
2018-07-07T12:00:09.516Z,1.20
2018-07-07T12:01:09.553Z,1.20
2018-07-07T12:02:09.595Z,1.00
2018-07-07T12:03:09.646Z,1.20
2018-07-07T12:04:09.682Z,1.30
2018-07-07T12:05:09.782Z,0.90
2018-07-07T12:06:09.755Z,1.20
2018-07-07T12:07:09.807Z,0.90
2018-07-07T12:08:13.989Z,1.10
2018-07-07T12:09:09.886Z,1.20
2018-07-07T12:10:09.934Z,0.90
2018-07-07T12:11:09.999Z,1.30
2018-07-07T12:12:10.014Z,1.00
2018-07-07T12:13:10.051Z,1.00
2018-07-07T12:14:10.106Z,1.20
2018-07-07T12:15:10.200Z,1.30
2018-07-07T12:16:10.178Z,1.40
2018-07-07T12:17:10.229Z,1.20
2018-07-07T12:18:10.270Z,1.10
2018-07-07T12:19:10.309Z,1.10
2018-07-07T12:20:10.363Z,1.30
2018-07-07T12:21:10.400Z,0.90
2018-07-07T12:22:10.437Z,1.40
2018-07-07T12:23:10.473Z,1.00
2018-07-07T12:24:10.517Z,1.00
2018-07-07T12:25:10.568Z,1.10
2018-07-07T12:26:10.602Z,1.10
2018-07-07T12:27:10.640Z,1.40
2018-07-07T12:28:10.677Z,1.70
2018-07-07T12:29:10.727Z,1.40
2018-07-07T12:30:10.770Z,1.00
2018-07-07T12:31:10.808Z,1.10
2018-07-07T12:32:10.845Z,1.30
2018-07-07T12:33:10.896Z,0.80
2018-07-07T12:34:10.939Z,1.10
2018-07-07T12:35:10.977Z,1.00
2018-07-07T12:36:11.013Z,1.20
2018-07-07T12:37:11.066Z,1.30
2018-07-07T12:38:11.099Z,1.40
2018-07-07T12:39:11.137Z,1.20
2018-07-07T12:40:11.182Z,1.30
2018-07-07T12:41:11.220Z,1.40
2018-07-07T12:42:11.266Z,1.00
2018-07-07T12:43:11.306Z,1.10
2018-07-07T12:44:11.344Z,1.20
2018-07-07T12:45:11.383Z,1.00
2018-07-07T12:46:11.439Z,1.10
2018-07-07T12:47:11.476Z,1.10
2018-07-07T12:48:11.510Z,0.90
2018-07-07T12:49:11.549Z,1.20
2018-07-07T12:50:11.591Z,1.10
2018-07-07T12:51:11.645Z,1.10
2018-07-07T12:52:11.682Z,1.20
2018-07-07T12:53:11.721Z,1.00
2018-07-07T12:54:11.766Z,1.10
2018-07-07T12:55:11.793Z,1.20
2018-07-07T12:56:11.845Z,1.10
2018-07-07T12:57:11.887Z,1.20
2018-07-07T12:58:11.919Z,1.10
2018-07-07T12:59:11.955Z,1.20
2018-07-07T13:00:11.997Z,1.50
2018-07-07T13:01:12.116Z,1.00
2018-07-07T13:02:12.080Z,1.20
2018-07-07T13:03:12.118Z,0.90
2018-07-07T13:04:12.161Z,1.40
2018-07-07T13:05:12.201Z,1.50
2018-07-07T13:06:12.242Z,1.10
2018-07-07T13:07:12.281Z,1.20
2018-07-07T13:08:12.320Z,0.90
2018-07-07T13:09:12.360Z,0.90
2018-07-07T13:10:12.394Z,1.10
2018-07-07T13:11:12.433Z,1.20
2018-07-07T13:12:12.476Z,1.10
2018-07-07T13:13:12.528Z,1.10
2018-07-07T13:14:12.561Z,0.90
2018-07-07T13:15:12.716Z,1.10
2018-07-07T13:16:12.743Z,0.90
2018-07-07T13:17:12.673Z,1.00
2018-07-07T13:18:12.716Z,1.20
2018-07-07T13:19:12.755Z,1.00